sensor_id;sensor_type;location;lat;lon;timestamp;temperature;humidity
36444;DHT22;24692;45.642;13.806;2023-10-19T00:00:39;15.10;99.90
36444;DHT22;24692;45.642;13.806;2023-10-19T00:03:06;15.10;99.90
36444;DHT22;24692;45.642;13.806;2023-10-19T00:05:33;15.20;99.90
36444;DHT22;24692;45.642;13.806;2023-10-19T00:08:02;15.20;99.90
36444;DHT22;24692;45.642;13.806;2023-10-19T00:10:44;15.30;99.90
36444;DHT22;24692;45.642;13.806;2023-10-19T00:13:13;15.30;99.90
36444;DHT22;24692;45.642;13.806;2023-10-19T00:15:40;15.30;99.90
36444;DHT22;24692;45.642;13.806;2023-10-19T00:18:07;15.30;99.90
36444;DHT22;24692;45.642;13.806;2023-10-19T00:20:59;15.30;99.90
36444;DHT22;24692;45.642;13.806;2023-10-19T00:23:45;15.30;99.90
36444;DHT22;24692;45.642;13.806;2023-10-19T00:26:13;15.40;99.90
36444;DHT22;24692;45.642;13.806;2023-10-19T00:28:51;15.30;99.90
36444;DHT22;24692;45.642;13.806;2023-10-19T00:31:24;15.30;99.90
36444;DHT22;24692;45.642;13.806;2023-10-19T00:33:53;15.40;99.90
36444;DHT22;24692;45.642;13.806;2023-10-19T00:36:21;15.30;99.90
36444;DHT22;24692;45.642;13.806;2023-10-19T00:38:48;15.40;99.90
36444;DHT22;24692;45.642;13.806;2023-10-19T00:41:26;15.30;99.90
36444;DHT22;24692;45.642;13.806;2023-10-19T00:43:55;15.40;99.90
36444;DHT22;24692;45.642;13.806;2023-10-19T00:46:37;15.40;99.90
36444;DHT22;24692;45.642;13.806;2023-10-19T00:49:12;15.40;99.90
36444;DHT22;24692;45.642;13.806;2023-10-19T00:51:43;15.50;99.90
36444;DHT22;24692;45.642;13.806;2023-10-19T00:54:29;15.40;99.90
36444;DHT22;24692;45.642;13.806;2023-10-19T00:57:01;15.40;99.90
36444;DHT22;24692;45.642;13.806;2023-10-19T00:59:36;15.50;99.90
36444;DHT22;24692;45.642;13.806;2023-10-19T01:02:09;15.50;99.90
36444;DHT22;24692;45.642;13.806;2023-10-19T01:04:54;15.50;99.90
36444;DHT22;24692;45.642;13.806;2023-10-19T01:07:27;15.60;99.90
36444;DHT22;24692;45.642;13.806;2023-10-19T01:09:59;15.60;99.90
36444;DHT22;24692;45.642;13.806;2023-10-19T01:12:26;15.70;99.90
36444;DHT22;24692;45.642;13.806;2023-10-19T01:15:08;15.70;99.90
36444;DHT22;24692;45.642;13.806;2023-10-19T01:17:51;15.70;99.90
36444;DHT22;24692;45.642;13.806;2023-10-19T01:20:25;15.70;99.90
36444;DHT22;24692;45.642;13.806;2023-10-19T01:22:57;15.70;99.90
36444;DHT22;24692;45.642;13.806;2023-10-19T01:28:08;15.80;99.90
36444;DHT22;24692;45.642;13.806;2023-10-19T01:30:35;15.80;99.90
36444;DHT22;24692;45.642;13.806;2023-10-19T01:33:03;15.80;99.90
36444;DHT22;24692;45.642;13.806;2023-10-19T01:35:30;15.80;99.90
36444;DHT22;24692;45.642;13.806;2023-10-19T01:38:15;15.80;99.90
36444;DHT22;24692;45.642;13.806;2023-10-19T01:40:41;15.80;99.90
36444;DHT22;24692;45.642;13.806;2023-10-19T01:43:14;15.80;99.90
36444;DHT22;24692;45.642;13.806;2023-10-19T01:45:52;15.70;99.90
36444;DHT22;24692;45.642;13.806;2023-10-19T01:48:20;15.80;99.90
36444;DHT22;24692;45.642;13.806;2023-10-19T01:50:48;15.80;99.90
36444;DHT22;24692;45.642;13.806;2023-10-19T01:53:17;15.80;99.90
36444;DHT22;24692;45.642;13.806;2023-10-19T01:55:44;15.80;99.90
36444;DHT22;24692;45.642;13.806;2023-10-19T01:58:10;15.80;99.90
36444;DHT22;24692;45.642;13.806;2023-10-19T02:00:36;15.80;99.90
36444;DHT22;24692;45.642;13.806;2023-10-19T02:03:07;15.80;99.90
36444;DHT22;24692;45.642;13.806;2023-10-19T02:05:34;15.80;99.90
36444;DHT22;24692;45.642;13.806;2023-10-19T02:08:06;15.80;99.90
36444;DHT22;24692;45.642;13.806;2023-10-19T02:10:33;15.80;99.90
36444;DHT22;24692;45.642;13.806;2023-10-19T02:13:00;15.90;99.90
36444;DHT22;24692;45.642;13.806;2023-10-19T02:15:27;15.90;99.90
36444;DHT22;24692;45.642;13.806;2023-10-19T02:17:53;15.90;99.90
36444;DHT22;24692;45.642;13.806;2023-10-19T02:20:24;15.90;99.90
36444;DHT22;24692;45.642;13.806;2023-10-19T02:22:51;15.80;99.90
36444;DHT22;24692;45.642;13.806;2023-10-19T02:25:18;15.80;99.90
36444;DHT22;24692;45.642;13.806;2023-10-19T02:27:46;15.80;99.90
36444;DHT22;24692;45.642;13.806;2023-10-19T02:30:16;15.80;99.90
36444;DHT22;24692;45.642;13.806;2023-10-19T02:32:43;15.80;99.90
36444;DHT22;24692;45.642;13.806;2023-10-19T02:35:10;15.80;99.90
36444;DHT22;24692;45.642;13.806;2023-10-19T02:37:39;15.90;99.90
36444;DHT22;24692;45.642;13.806;2023-10-19T02:40:06;15.90;99.90
36444;DHT22;24692;45.642;13.806;2023-10-19T02:42:48;15.90;99.90
36444;DHT22;24692;45.642;13.806;2023-10-19T02:45:16;15.90;99.90
36444;DHT22;24692;45.642;13.806;2023-10-19T02:47:44;15.90;99.90
36444;DHT22;24692;45.642;13.806;2023-10-19T02:50:10;15.90;99.90
36444;DHT22;24692;45.642;13.806;2023-10-19T02:52:46;15.90;99.90
36444;DHT22;24692;45.642;13.806;2023-10-19T02:55:13;15.90;99.90
36444;DHT22;24692;45.642;13.806;2023-10-19T02:57:42;16.00;99.90
36444;DHT22;24692;45.642;13.806;2023-10-19T03:00:12;16.10;99.90
36444;DHT22;24692;45.642;13.806;2023-10-19T03:02:40;16.20;99.90
36444;DHT22;24692;45.642;13.806;2023-10-19T03:05:06;16.20;99.90
36444;DHT22;24692;45.642;13.806;2023-10-19T03:07:43;16.20;99.90
36444;DHT22;24692;45.642;13.806;2023-10-19T03:10:10;16.30;99.90
36444;DHT22;24692;45.642;13.806;2023-10-19T03:13:00;16.40;99.90
36444;DHT22;24692;45.642;13.806;2023-10-19T03:15:26;16.30;99.90
36444;DHT22;24692;45.642;13.806;2023-10-19T03:17:55;16.30;99.90
36444;DHT22;24692;45.642;13.806;2023-10-19T03:20:20;16.30;99.90
36444;DHT22;24692;45.642;13.806;2023-10-19T03:22:49;16.30;99.90
36444;DHT22;24692;45.642;13.806;2023-10-19T03:25:15;16.30;99.90
36444;DHT22;24692;45.642;13.806;2023-10-19T03:28:00;16.30;99.90
36444;DHT22;24692;45.642;13.806;2023-10-19T03:30:35;16.30;99.90
36444;DHT22;24692;45.642;13.806;2023-10-19T03:33:06;16.30;99.90
36444;DHT22;24692;45.642;13.806;2023-10-19T03:35:36;16.30;99.90
36444;DHT22;24692;45.642;13.806;2023-10-19T03:38:03;16.30;99.90
36444;DHT22;24692;45.642;13.806;2023-10-19T03:40:41;16.30;99.90
36444;DHT22;24692;45.642;13.806;2023-10-19T03:43:06;16.30;99.90
36444;DHT22;24692;45.642;13.806;2023-10-19T03:45:44;16.30;99.90
36444;DHT22;24692;45.642;13.806;2023-10-19T03:48:14;16.30;99.90
36444;DHT22;24692;45.642;13.806;2023-10-19T03:50:41;16.30;99.90
36444;DHT22;24692;45.642;13.806;2023-10-19T03:53:08;16.20;99.90
36444;DHT22;24692;45.642;13.806;2023-10-19T03:55:37;16.30;99.90
36444;DHT22;24692;45.642;13.806;2023-10-19T03:58:04;16.20;99.90
36444;DHT22;24692;45.642;13.806;2023-10-19T04:00:30;16.30;99.90
36444;DHT22;24692;45.642;13.806;2023-10-19T04:02:59;16.30;99.90
36444;DHT22;24692;45.642;13.806;2023-10-19T04:05:24;16.20;99.90
36444;DHT22;24692;45.642;13.806;2023-10-19T04:07:51;16.20;99.90
36444;DHT22;24692;45.642;13.806;2023-10-19T04:10:21;16.20;99.90
36444;DHT22;24692;45.642;13.806;2023-10-19T04:13:04;16.20;99.90
36444;DHT22;24692;45.642;13.806;2023-10-19T04:15:34;16.30;99.90
36444;DHT22;24692;45.642;13.806;2023-10-19T04:18:01;16.30;99.90
36444;DHT22;24692;45.642;13.806;2023-10-19T04:20:27;16.20;99.90
36444;DHT22;24692;45.642;13.806;2023-10-19T04:22:55;16.20;99.90
36444;DHT22;24692;45.642;13.806;2023-10-19T04:25:31;16.20;99.90
36444;DHT22;24692;45.642;13.806;2023-10-19T04:27:57;16.20;99.90
36444;DHT22;24692;45.642;13.806;2023-10-19T04:30:22;16.20;99.90
36444;DHT22;24692;45.642;13.806;2023-10-19T04:32:49;16.30;99.90
36444;DHT22;24692;45.642;13.806;2023-10-19T04:35:15;16.30;99.90
36444;DHT22;24692;45.642;13.806;2023-10-19T04:37:50;16.30;99.90
36444;DHT22;24692;45.642;13.806;2023-10-19T04:40:17;16.30;99.90
36444;DHT22;24692;45.642;13.806;2023-10-19T04:42:44;16.20;99.90
36444;DHT22;24692;45.642;13.806;2023-10-19T04:45:12;16.30;99.90
36444;DHT22;24692;45.642;13.806;2023-10-19T04:47:38;16.30;99.90
36444;DHT22;24692;45.642;13.806;2023-10-19T04:50:07;16.30;99.90
36444;DHT22;24692;45.642;13.806;2023-10-19T04:52:36;16.30;99.90
36444;DHT22;24692;45.642;13.806;2023-10-19T04:55:02;16.40;99.90
36444;DHT22;24692;45.642;13.806;2023-10-19T04:57:28;16.50;99.90
36444;DHT22;24692;45.642;13.806;2023-10-19T04:59:54;16.60;99.90
36444;DHT22;24692;45.642;13.806;2023-10-19T05:02:20;16.60;99.90
36444;DHT22;24692;45.642;13.806;2023-10-19T05:04:46;16.60;99.90
36444;DHT22;24692;45.642;13.806;2023-10-19T05:07:12;16.70;99.90
36444;DHT22;24692;45.642;13.806;2023-10-19T05:09:40;16.70;99.90
36444;DHT22;24692;45.642;13.806;2023-10-19T05:12:06;16.70;99.90
36444;DHT22;24692;45.642;13.806;2023-10-19T05:14:35;16.70;99.90
36444;DHT22;24692;45.642;13.806;2023-10-19T05:17:04;16.70;99.90
36444;DHT22;24692;45.642;13.806;2023-10-19T05:19:34;16.70;99.90
36444;DHT22;24692;45.642;13.806;2023-10-19T05:22:01;16.70;99.90
36444;DHT22;24692;45.642;13.806;2023-10-19T05:24:27;16.60;99.90
36444;DHT22;24692;45.642;13.806;2023-10-19T05:26:53;16.60;99.90
36444;DHT22;24692;45.642;13.806;2023-10-19T05:29:22;16.60;99.90
36444;DHT22;24692;45.642;13.806;2023-10-19T05:31:51;16.60;99.90
36444;DHT22;24692;45.642;13.806;2023-10-19T05:34:24;16.60;99.90
36444;DHT22;24692;45.642;13.806;2023-10-19T05:36:52;16.70;99.90
36444;DHT22;24692;45.642;13.806;2023-10-19T05:39:19;16.80;99.90
36444;DHT22;24692;45.642;13.806;2023-10-19T05:41:46;16.80;99.90
36444;DHT22;24692;45.642;13.806;2023-10-19T05:44:12;16.90;99.90
36444;DHT22;24692;45.642;13.806;2023-10-19T05:46:38;16.90;99.90
36444;DHT22;24692;45.642;13.806;2023-10-19T05:49:05;17.00;99.90
36444;DHT22;24692;45.642;13.806;2023-10-19T05:51:31;17.00;99.90
36444;DHT22;24692;45.642;13.806;2023-10-19T05:53:57;17.10;99.90
36444;DHT22;24692;45.642;13.806;2023-10-19T05:56:30;17.10;99.90
36444;DHT22;24692;45.642;13.806;2023-10-19T05:58:56;17.10;99.90
36444;DHT22;24692;45.642;13.806;2023-10-19T06:01:23;17.20;99.90
36444;DHT22;24692;45.642;13.806;2023-10-19T06:03:49;17.20;99.90
36444;DHT22;24692;45.642;13.806;2023-10-19T06:06:16;17.20;99.90
36444;DHT22;24692;45.642;13.806;2023-10-19T06:08:43;17.30;99.90
36444;DHT22;24692;45.642;13.806;2023-10-19T06:11:11;17.30;99.90
36444;DHT22;24692;45.642;13.806;2023-10-19T06:13:37;17.40;99.90
36444;DHT22;24692;45.642;13.806;2023-10-19T06:16:03;17.40;99.90
36444;DHT22;24692;45.642;13.806;2023-10-19T06:18:29;17.40;99.90
36444;DHT22;24692;45.642;13.806;2023-10-19T06:20:55;17.50;99.90
36444;DHT22;24692;45.642;13.806;2023-10-19T06:23:21;17.50;99.90
36444;DHT22;24692;45.642;13.806;2023-10-19T06:25:46;17.50;99.90
36444;DHT22;24692;45.642;13.806;2023-10-19T06:28:13;17.40;99.90
36444;DHT22;24692;45.642;13.806;2023-10-19T06:30:39;17.40;99.90
36444;DHT22;24692;45.642;13.806;2023-10-19T06:33:08;17.40;99.90
36444;DHT22;24692;45.642;13.806;2023-10-19T06:35:34;17.40;99.90
36444;DHT22;24692;45.642;13.806;2023-10-19T06:38:02;17.50;99.90
36444;DHT22;24692;45.642;13.806;2023-10-19T06:40:30;17.50;99.90
36444;DHT22;24692;45.642;13.806;2023-10-19T06:42:59;17.60;99.90
36444;DHT22;24692;45.642;13.806;2023-10-19T06:45:28;17.70;99.90
36444;DHT22;24692;45.642;13.806;2023-10-19T06:47:55;17.80;99.90
36444;DHT22;24692;45.642;13.806;2023-10-19T06:50:22;17.90;99.90
36444;DHT22;24692;45.642;13.806;2023-10-19T06:52:49;17.90;99.90
36444;DHT22;24692;45.642;13.806;2023-10-19T06:55:17;17.90;99.90
36444;DHT22;24692;45.642;13.806;2023-10-19T06:57:49;17.80;99.90
36444;DHT22;24692;45.642;13.806;2023-10-19T07:00:17;17.90;99.90
36444;DHT22;24692;45.642;13.806;2023-10-19T07:02:55;17.80;99.90
36444;DHT22;24692;45.642;13.806;2023-10-19T07:05:22;17.80;99.90
36444;DHT22;24692;45.642;13.806;2023-10-19T07:07:51;17.90;99.90
36444;DHT22;24692;45.642;13.806;2023-10-19T07:10:22;17.90;99.90
36444;DHT22;24692;45.642;13.806;2023-10-19T07:12:51;17.90;99.90
36444;DHT22;24692;45.642;13.806;2023-10-19T07:15:17;17.80;99.90
36444;DHT22;24692;45.642;13.806;2023-10-19T07:17:48;17.80;99.90
36444;DHT22;24692;45.642;13.806;2023-10-19T07:20:15;17.80;99.90
36444;DHT22;24692;45.642;13.806;2023-10-19T07:23:01;17.80;99.90
36444;DHT22;24692;45.642;13.806;2023-10-19T07:25:48;17.70;99.90
36444;DHT22;24692;45.642;13.806;2023-10-19T07:28:18;17.60;99.90
36444;DHT22;24692;45.642;13.806;2023-10-19T07:30:45;17.60;99.90
36444;DHT22;24692;45.642;13.806;2023-10-19T07:33:12;17.60;99.90
36444;DHT22;24692;45.642;13.806;2023-10-19T07:35:46;17.60;99.90
36444;DHT22;24692;45.642;13.806;2023-10-19T07:38:15;17.60;99.90
36444;DHT22;24692;45.642;13.806;2023-10-19T07:40:42;17.60;99.90
36444;DHT22;24692;45.642;13.806;2023-10-19T07:43:09;17.60;99.90
36444;DHT22;24692;45.642;13.806;2023-10-19T07:45:35;17.40;99.90
36444;DHT22;24692;45.642;13.806;2023-10-19T07:48:02;17.80;99.90
36444;DHT22;24692;45.642;13.806;2023-10-19T07:50:38;18.10;99.90
36444;DHT22;24692;45.642;13.806;2023-10-19T07:53:08;18.00;99.90
36444;DHT22;24692;45.642;13.806;2023-10-19T07:55:34;17.80;99.90
36444;DHT22;24692;45.642;13.806;2023-10-19T07:58:00;17.70;99.90
36444;DHT22;24692;45.642;13.806;2023-10-19T08:00:27;17.70;99.90
36444;DHT22;24692;45.642;13.806;2023-10-19T08:02:56;17.60;99.90
36444;DHT22;24692;45.642;13.806;2023-10-19T08:05:22;17.60;99.90
36444;DHT22;24692;45.642;13.806;2023-10-19T08:07:48;17.50;99.90
36444;DHT22;24692;45.642;13.806;2023-10-19T08:10:16;17.50;99.90
36444;DHT22;24692;45.642;13.806;2023-10-19T08:12:44;17.60;99.90
36444;DHT22;24692;45.642;13.806;2023-10-19T08:15:13;17.60;99.90
36444;DHT22;24692;45.642;13.806;2023-10-19T08:17:42;17.80;99.90
36444;DHT22;24692;45.642;13.806;2023-10-19T08:20:09;17.70;99.90
36444;DHT22;24692;45.642;13.806;2023-10-19T08:22:37;17.90;99.90
36444;DHT22;24692;45.642;13.806;2023-10-19T08:25:03;18.30;99.90
36444;DHT22;24692;45.642;13.806;2023-10-19T08:27:30;18.40;99.90
36444;DHT22;24692;45.642;13.806;2023-10-19T08:29:56;18.40;99.90
36444;DHT22;24692;45.642;13.806;2023-10-19T08:32:22;18.40;99.90
36444;DHT22;24692;45.642;13.806;2023-10-19T08:34:48;18.40;99.90
36444;DHT22;24692;45.642;13.806;2023-10-19T08:37:13;18.60;99.90
36444;DHT22;24692;45.642;13.806;2023-10-19T08:39:40;18.80;99.90
36444;DHT22;24692;45.642;13.806;2023-10-19T08:42:06;18.80;99.90
36444;DHT22;24692;45.642;13.806;2023-10-19T08:44:34;18.90;99.90
36444;DHT22;24692;45.642;13.806;2023-10-19T08:47:01;18.80;99.90
36444;DHT22;24692;45.642;13.806;2023-10-19T08:49:26;18.70;99.90
36444;DHT22;24692;45.642;13.806;2023-10-19T08:51:53;18.70;99.90
36444;DHT22;24692;45.642;13.806;2023-10-19T08:54:20;18.70;99.90
36444;DHT22;24692;45.642;13.806;2023-10-19T08:56:46;18.70;99.90
36444;DHT22;24692;45.642;13.806;2023-10-19T08:59:13;18.60;99.90
36444;DHT22;24692;45.642;13.806;2023-10-19T09:01:41;18.70;99.90
36444;DHT22;24692;45.642;13.806;2023-10-19T09:04:10;18.70;99.90
36444;DHT22;24692;45.642;13.806;2023-10-19T09:06:37;18.80;99.90
36444;DHT22;24692;45.642;13.806;2023-10-19T09:09:13;19.00;99.90
36444;DHT22;24692;45.642;13.806;2023-10-19T09:11:46;19.00;99.90
36444;DHT22;24692;45.642;13.806;2023-10-19T09:14:12;19.00;99.90
36444;DHT22;24692;45.642;13.806;2023-10-19T09:16:53;19.10;99.90
36444;DHT22;24692;45.642;13.806;2023-10-19T09:19:40;19.20;99.90
36444;DHT22;24692;45.642;13.806;2023-10-19T09:22:07;19.40;99.90
36444;DHT22;24692;45.642;13.806;2023-10-19T09:24:36;19.50;99.90
36444;DHT22;24692;45.642;13.806;2023-10-19T09:27:03;19.60;99.90
36444;DHT22;24692;45.642;13.806;2023-10-19T09:29:30;19.70;99.90
36444;DHT22;24692;45.642;13.806;2023-10-19T09:31:58;19.80;99.90
36444;DHT22;24692;45.642;13.806;2023-10-19T09:34:29;19.90;99.90
36444;DHT22;24692;45.642;13.806;2023-10-19T09:36:59;19.90;99.90
36444;DHT22;24692;45.642;13.806;2023-10-19T09:39:27;19.90;99.90
36444;DHT22;24692;45.642;13.806;2023-10-19T09:42:07;19.90;99.90
36444;DHT22;24692;45.642;13.806;2023-10-19T09:44:48;19.90;99.90
36444;DHT22;24692;45.642;13.806;2023-10-19T09:47:36;19.70;99.90
36444;DHT22;24692;45.642;13.806;2023-10-19T09:50:04;19.60;99.90
36444;DHT22;24692;45.642;13.806;2023-10-19T09:52:33;19.70;99.90
36444;DHT22;24692;45.642;13.806;2023-10-19T09:55:08;19.50;99.90
36444;DHT22;24692;45.642;13.806;2023-10-19T10:00:11;19.50;99.90
36444;DHT22;24692;45.642;13.806;2023-10-19T10:02:42;19.60;99.90
36444;DHT22;24692;45.642;13.806;2023-10-19T10:10:47;19.60;99.90
36444;DHT22;24692;45.642;13.806;2023-10-19T10:15:54;19.90;99.90
36444;DHT22;24692;45.642;13.806;2023-10-19T10:18:24;20.00;99.90
36444;DHT22;24692;45.642;13.806;2023-10-19T10:21:42;19.70;99.90
36444;DHT22;24692;45.642;13.806;2023-10-19T10:24:03;19.80;99.90
36444;DHT22;24692;45.642;13.806;2023-10-19T10:26:31;19.90;99.90
36444;DHT22;24692;45.642;13.806;2023-10-19T10:29:22;20.00;99.90
36444;DHT22;24692;45.642;13.806;2023-10-19T10:31:50;20.00;99.90
36444;DHT22;24692;45.642;13.806;2023-10-19T10:37:12;19.80;99.90
36444;DHT22;24692;45.642;13.806;2023-10-19T10:39:39;19.80;99.90
36444;DHT22;24692;45.642;13.806;2023-10-19T10:42:10;19.90;99.90
36444;DHT22;24692;45.642;13.806;2023-10-19T10:44:49;20.10;99.90
36444;DHT22;24692;45.642;13.806;2023-10-19T10:47:21;20.60;99.90
36444;DHT22;24692;45.642;13.806;2023-10-19T10:49:58;20.90;99.90
36444;DHT22;24692;45.642;13.806;2023-10-19T10:52:31;21.20;99.90
36444;DHT22;24692;45.642;13.806;2023-10-19T10:55:09;21.20;99.90
36444;DHT22;24692;45.642;13.806;2023-10-19T10:57:39;21.10;99.90
36444;DHT22;24692;45.642;13.806;2023-10-19T11:00:09;20.80;99.90
36444;DHT22;24692;45.642;13.806;2023-10-19T11:02:41;20.30;99.90
36444;DHT22;24692;45.642;13.806;2023-10-19T11:05:12;19.90;99.90
36444;DHT22;24692;45.642;13.806;2023-10-19T11:07:39;19.60;99.90
36444;DHT22;24692;45.642;13.806;2023-10-19T11:10:05;19.50;99.90
36444;DHT22;24692;45.642;13.806;2023-10-19T11:12:31;19.50;99.90
36444;DHT22;24692;45.642;13.806;2023-10-19T11:14:58;19.10;99.90
36444;DHT22;24692;45.642;13.806;2023-10-19T11:17:25;19.00;99.90
36444;DHT22;24692;45.642;13.806;2023-10-19T11:19:56;19.10;99.90
36444;DHT22;24692;45.642;13.806;2023-10-19T11:22:23;19.20;99.90
36444;DHT22;24692;45.642;13.806;2023-10-19T11:24:55;19.20;99.90
36444;DHT22;24692;45.642;13.806;2023-10-19T11:27:27;19.20;99.90
36444;DHT22;24692;45.642;13.806;2023-10-19T11:29:54;19.30;99.90
36444;DHT22;24692;45.642;13.806;2023-10-19T11:32:21;19.20;99.90
36444;DHT22;24692;45.642;13.806;2023-10-19T11:34:47;19.10;99.90
36444;DHT22;24692;45.642;13.806;2023-10-19T11:37:13;19.10;99.90
36444;DHT22;24692;45.642;13.806;2023-10-19T11:39:39;19.10;99.90
36444;DHT22;24692;45.642;13.806;2023-10-19T11:42:05;19.20;99.90
36444;DHT22;24692;45.642;13.806;2023-10-19T11:44:30;19.30;99.90
36444;DHT22;24692;45.642;13.806;2023-10-19T11:46:56;19.30;99.90
36444;DHT22;24692;45.642;13.806;2023-10-19T11:49:22;19.20;99.90
36444;DHT22;24692;45.642;13.806;2023-10-19T11:51:48;19.20;99.90
36444;DHT22;24692;45.642;13.806;2023-10-19T11:54:14;19.20;99.90
36444;DHT22;24692;45.642;13.806;2023-10-19T11:56:39;19.10;99.90
36444;DHT22;24692;45.642;13.806;2023-10-19T11:59:05;19.10;99.90
36444;DHT22;24692;45.642;13.806;2023-10-19T12:01:32;19.00;99.90
36444;DHT22;24692;45.642;13.806;2023-10-19T12:03:58;19.10;99.90
36444;DHT22;24692;45.642;13.806;2023-10-19T12:06:25;19.10;99.90
36444;DHT22;24692;45.642;13.806;2023-10-19T12:08:51;19.10;99.90
36444;DHT22;24692;45.642;13.806;2023-10-19T12:11:16;19.10;99.90
36444;DHT22;24692;45.642;13.806;2023-10-19T12:13:44;19.20;99.90
36444;DHT22;24692;45.642;13.806;2023-10-19T12:16:13;19.30;99.90
36444;DHT22;24692;45.642;13.806;2023-10-19T12:18:41;19.30;99.90
36444;DHT22;24692;45.642;13.806;2023-10-19T12:21:10;19.40;99.90
36444;DHT22;24692;45.642;13.806;2023-10-19T12:23:44;19.60;99.90
36444;DHT22;24692;45.642;13.806;2023-10-19T12:26:10;19.70;99.90
36444;DHT22;24692;45.642;13.806;2023-10-19T12:28:39;19.90;99.90
36444;DHT22;24692;45.642;13.806;2023-10-19T12:31:06;20.00;99.90
36444;DHT22;24692;45.642;13.806;2023-10-19T12:33:35;19.80;99.90
36444;DHT22;24692;45.642;13.806;2023-10-19T12:36:01;19.80;99.90
36444;DHT22;24692;45.642;13.806;2023-10-19T12:38:27;19.70;99.90
36444;DHT22;24692;45.642;13.806;2023-10-19T12:40:52;19.80;99.90
36444;DHT22;24692;45.642;13.806;2023-10-19T12:43:19;19.80;99.90
36444;DHT22;24692;45.642;13.806;2023-10-19T12:45:48;19.90;99.90
36444;DHT22;24692;45.642;13.806;2023-10-19T12:48:19;19.80;99.90
36444;DHT22;24692;45.642;13.806;2023-10-19T12:50:46;19.70;99.90
36444;DHT22;24692;45.642;13.806;2023-10-19T12:53:12;19.60;99.90
36444;DHT22;24692;45.642;13.806;2023-10-19T12:55:39;19.40;99.90
36444;DHT22;24692;45.642;13.806;2023-10-19T12:58:05;19.60;99.90
36444;DHT22;24692;45.642;13.806;2023-10-19T13:00:40;19.60;99.90
36444;DHT22;24692;45.642;13.806;2023-10-19T13:03:14;19.60;99.90
36444;DHT22;24692;45.642;13.806;2023-10-19T13:05:42;19.70;99.90
36444;DHT22;24692;45.642;13.806;2023-10-19T13:08:13;19.80;99.90
36444;DHT22;24692;45.642;13.806;2023-10-19T13:10:40;19.80;99.90
36444;DHT22;24692;45.642;13.806;2023-10-19T13:13:11;19.80;99.90
36444;DHT22;24692;45.642;13.806;2023-10-19T13:15:38;19.80;99.90
36444;DHT22;24692;45.642;13.806;2023-10-19T13:18:08;19.80;99.90
36444;DHT22;24692;45.642;13.806;2023-10-19T13:20:39;19.80;99.90
36444;DHT22;24692;45.642;13.806;2023-10-19T13:23:08;19.80;99.90
36444;DHT22;24692;45.642;13.806;2023-10-19T13:25:38;19.90;99.90
36444;DHT22;24692;45.642;13.806;2023-10-19T13:28:13;19.70;99.90
36444;DHT22;24692;45.642;13.806;2023-10-19T13:30:41;19.60;99.90
36444;DHT22;24692;45.642;13.806;2023-10-19T13:33:08;19.60;99.90
36444;DHT22;24692;45.642;13.806;2023-10-19T13:35:37;19.80;99.90
36444;DHT22;24692;45.642;13.806;2023-10-19T13:38:07;19.80;99.90
36444;DHT22;24692;45.642;13.806;2023-10-19T13:40:34;20.00;99.90
36444;DHT22;24692;45.642;13.806;2023-10-19T13:43:02;20.00;99.90
36444;DHT22;24692;45.642;13.806;2023-10-19T13:45:31;20.10;99.90
36444;DHT22;24692;45.642;13.806;2023-10-19T13:47:58;20.10;99.90
36444;DHT22;24692;45.642;13.806;2023-10-19T13:50:24;20.30;99.90
36444;DHT22;24692;45.642;13.806;2023-10-19T13:52:52;20.40;99.90
36444;DHT22;24692;45.642;13.806;2023-10-19T13:55:19;20.30;99.90
36444;DHT22;24692;45.642;13.806;2023-10-19T13:57:46;20.30;99.90
36444;DHT22;24692;45.642;13.806;2023-10-19T14:00:13;20.20;99.90
36444;DHT22;24692;45.642;13.806;2023-10-19T14:02:45;20.10;99.90
36444;DHT22;24692;45.642;13.806;2023-10-19T14:05:12;20.10;99.90
36444;DHT22;24692;45.642;13.806;2023-10-19T14:07:38;19.90;99.90
36444;DHT22;24692;45.642;13.806;2023-10-19T14:10:06;19.90;99.90
36444;DHT22;24692;45.642;13.806;2023-10-19T14:12:33;19.90;99.90
36444;DHT22;24692;45.642;13.806;2023-10-19T14:14:59;19.70;99.90
36444;DHT22;24692;45.642;13.806;2023-10-19T14:17:24;19.70;99.90
36444;DHT22;24692;45.642;13.806;2023-10-19T14:19:51;19.60;99.90
36444;DHT22;24692;45.642;13.806;2023-10-19T14:22:16;19.50;99.90
36444;DHT22;24692;45.642;13.806;2023-10-19T14:24:43;19.60;99.90
36444;DHT22;24692;45.642;13.806;2023-10-19T14:27:10;19.70;99.90
36444;DHT22;24692;45.642;13.806;2023-10-19T14:29:36;19.70;99.90
36444;DHT22;24692;45.642;13.806;2023-10-19T14:32:02;19.70;99.90
36444;DHT22;24692;45.642;13.806;2023-10-19T14:34:28;19.80;99.90
36444;DHT22;24692;45.642;13.806;2023-10-19T14:36:55;19.70;99.90
36444;DHT22;24692;45.642;13.806;2023-10-19T14:39:20;19.80;99.90
36444;DHT22;24692;45.642;13.806;2023-10-19T14:41:46;19.80;99.90
36444;DHT22;24692;45.642;13.806;2023-10-19T14:44:12;19.70;99.90
36444;DHT22;24692;45.642;13.806;2023-10-19T14:46:37;19.70;99.90
36444;DHT22;24692;45.642;13.806;2023-10-19T14:49:03;19.70;99.90
36444;DHT22;24692;45.642;13.806;2023-10-19T14:51:30;19.60;99.90
36444;DHT22;24692;45.642;13.806;2023-10-19T14:53:56;19.60;99.90
36444;DHT22;24692;45.642;13.806;2023-10-19T14:56:21;19.50;99.90
36444;DHT22;24692;45.642;13.806;2023-10-19T14:58:47;19.40;99.90
36444;DHT22;24692;45.642;13.806;2023-10-19T15:01:13;19.30;99.90
36444;DHT22;24692;45.642;13.806;2023-10-19T15:03:43;19.20;99.90
36444;DHT22;24692;45.642;13.806;2023-10-19T15:06:08;19.10;99.90
36444;DHT22;24692;45.642;13.806;2023-10-19T15:08:34;19.00;99.90
36444;DHT22;24692;45.642;13.806;2023-10-19T15:10:59;18.90;99.90
36444;DHT22;24692;45.642;13.806;2023-10-19T15:13:25;18.90;99.90
36444;DHT22;24692;45.642;13.806;2023-10-19T15:15:51;18.90;99.90
36444;DHT22;24692;45.642;13.806;2023-10-19T15:18:17;18.70;99.90
36444;DHT22;24692;45.642;13.806;2023-10-19T15:20:44;18.70;99.90
36444;DHT22;24692;45.642;13.806;2023-10-19T15:23:09;18.60;99.90
36444;DHT22;24692;45.642;13.806;2023-10-19T15:25:37;18.60;99.90
36444;DHT22;24692;45.642;13.806;2023-10-19T15:28:02;18.60;99.90
36444;DHT22;24692;45.642;13.806;2023-10-19T15:30:28;18.60;99.90
36444;DHT22;24692;45.642;13.806;2023-10-19T15:32:54;18.60;99.90
36444;DHT22;24692;45.642;13.806;2023-10-19T15:35:20;18.70;99.90
36444;DHT22;24692;45.642;13.806;2023-10-19T15:37:48;18.70;99.90
36444;DHT22;24692;45.642;13.806;2023-10-19T15:40:15;18.70;99.90
36444;DHT22;24692;45.642;13.806;2023-10-19T15:42:41;18.70;99.90